createdAt,value
2018-06-07T00:00:36.496Z,20.02
2018-06-07T00:01:36.492Z,19.94
2018-06-07T00:02:36.480Z,20.03
2018-06-07T00:03:36.471Z,19.9
2018-06-07T00:04:36.196Z,19.9
2018-06-07T00:05:36.502Z,19.93
2018-06-07T00:06:36.443Z,19.84
2018-06-07T00:07:36.172Z,19.84
2018-06-07T00:08:36.177Z,19.87
2018-06-07T00:09:36.174Z,19.79
2018-06-07T00:10:36.406Z,19.78
2018-06-07T00:11:36.397Z,19.86
2018-06-07T00:12:36.389Z,19.76
2018-06-07T00:13:36.114Z,19.84
2018-06-07T00:14:36.371Z,19.79
2018-06-07T00:15:36.097Z,19.86
2018-06-07T00:16:36.346Z,19.79
2018-06-07T00:17:36.080Z,19.83
2018-06-07T00:18:36.069Z,19.78
2018-06-07T00:19:35.789Z,19.8
2018-06-07T00:20:36.047Z,19.8
2018-06-07T00:21:36.037Z,19.73
2018-06-07T00:22:35.761Z,19.78
2018-06-07T00:23:36.328Z,19.72
2018-06-07T00:24:36.009Z,19.7
2018-06-07T00:25:36.258Z,19.72
2018-06-07T00:26:36.309Z,19.68
2018-06-07T00:27:36.242Z,19.63
2018-06-07T00:28:35.969Z,19.72
2018-06-07T00:29:35.964Z,19.72
2018-06-07T00:30:36.225Z,19.63
2018-06-07T00:31:35.948Z,19.68
2018-06-07T00:32:36.193Z,19.54
2018-06-07T00:33:35.920Z,19.58
2018-06-07T00:34:35.912Z,19.5
2018-06-07T00:35:35.637Z,19.57
2018-06-07T00:36:36.172Z,19.57
2018-06-07T00:37:36.153Z,19.5
2018-06-07T00:38:35.614Z,19.4
2018-06-07T00:39:35.866Z,19.5
2018-06-07T00:40:36.121Z,19.42
2018-06-07T00:41:36.110Z,19.39
2018-06-07T00:42:35.842Z,19.4
2018-06-07T00:43:36.088Z,19.4
2018-06-07T00:44:35.822Z,19.35
2018-06-07T00:45:35.809Z,19.36
2018-06-07T00:46:36.264Z,19.36
2018-06-07T00:47:35.792Z,19.36
2018-06-07T00:48:35.783Z,19.32
2018-06-07T00:49:35.774Z,19.32
2018-06-07T00:50:35.759Z,19.32
2018-06-07T00:51:35.749Z,19.33
2018-06-07T00:52:35.738Z,19.29
2018-06-07T00:53:35.730Z,19.25
2018-06-07T00:54:35.981Z,19.2
2018-06-07T00:55:35.720Z,19.2
2018-06-07T00:56:35.976Z,19.13
2018-06-07T00:57:35.955Z,19.24
2018-06-07T00:58:35.413Z,19.23
2018-06-07T00:59:35.933Z,19.15
2018-06-07T01:00:35.662Z,19.14
2018-06-07T01:01:35.912Z,19.11
2018-06-07T01:02:35.640Z,19.08
2018-06-07T01:03:35.895Z,19.02
2018-06-07T01:04:35.619Z,18.99
2018-06-07T01:05:35.872Z,18.95
2018-06-07T01:06:35.598Z,18.97
2018-06-07T01:07:35.598Z,18.98
2018-06-07T01:08:35.320Z,18.83
2018-06-07T01:09:35.839Z,18.91
2018-06-07T01:10:35.873Z,18.9
2018-06-07T01:11:35.550Z,18.84
2018-06-07T01:12:35.276Z,18.8
2018-06-07T01:13:35.527Z,18.82
2018-06-07T01:14:35.526Z,18.83
2018-06-07T01:15:35.519Z,18.77
2018-06-07T01:16:35.506Z,18.83
2018-06-07T01:17:35.877Z,18.82
2018-06-07T01:18:35.481Z,18.8
2018-06-07T01:19:35.480Z,18.8
2018-06-07T01:20:35.726Z,18.8
2018-06-07T01:21:35.714Z,18.83
2018-06-07T01:22:35.441Z,18.77
2018-06-07T01:23:35.697Z,18.77
2018-06-07T01:24:35.678Z,18.65
2018-06-07T01:25:35.413Z,18.7
2018-06-07T01:26:35.674Z,18.79
2018-06-07T01:27:35.121Z,18.76
2018-06-07T01:28:35.375Z,18.76
2018-06-07T01:29:35.101Z,18.76
2018-06-07T01:30:35.357Z,18.73
2018-06-07T01:31:35.345Z,18.7
2018-06-07T01:32:35.074Z,18.74
2018-06-07T01:33:35.064Z,18.67
2018-06-07T01:34:35.588Z,18.76
2018-06-07T01:35:35.569Z,18.62
2018-06-07T01:36:35.031Z,18.7
2018-06-07T01:37:35.552Z,18.73
2018-06-07T01:38:35.272Z,18.61
2018-06-07T01:39:35.542Z,18.61
2018-06-07T01:40:35.263Z,18.68
2018-06-07T01:41:34.978Z,18.64
2018-06-07T01:42:35.496Z,18.67
2018-06-07T01:43:35.221Z,18.55
2018-06-07T01:44:34.944Z,18.55
2018-06-07T01:45:34.938Z,18.64
2018-06-07T01:46:35.461Z,18.5
2018-06-07T01:47:34.915Z,18.5
2018-06-07T01:48:35.174Z,18.61
2018-06-07T01:49:34.893Z,18.54
2018-06-07T01:50:35.156Z,18.46
2018-06-07T01:51:35.409Z,18.47
2018-06-07T01:52:35.123Z,18.34
2018-06-07T01:53:35.380Z,18.42
2018-06-07T01:54:35.113Z,18.4
2018-06-07T01:55:35.110Z,18.39
2018-06-07T01:56:35.354Z,18.34
2018-06-07T01:57:35.338Z,18.29
2018-06-07T01:58:35.063Z,18.28
2018-06-07T01:59:35.057Z,18.34
2018-06-07T02:00:35.041Z,18.31
2018-06-07T02:01:35.035Z,18.31
2018-06-07T02:02:35.026Z,18.31
2018-06-07T02:03:35.020Z,18.27
2018-06-07T02:04:35.001Z,18.22
2018-06-07T02:05:35.257Z,18.29
2018-06-07T02:06:35.251Z,18.28
2018-06-07T02:07:35.236Z,18.15
2018-06-07T02:08:34.965Z,18.22
2018-06-07T02:09:34.948Z,18.12
2018-06-07T02:10:34.945Z,18.24
2018-06-07T02:11:34.932Z,18.12
2018-06-07T02:12:35.179Z,18.17
2018-06-07T02:13:35.172Z,18.15
2018-06-07T02:14:34.896Z,18.12
2018-06-07T02:15:34.885Z,18.04
2018-06-07T02:16:34.877Z,18.06
2018-06-07T02:17:35.129Z,18.12
2018-06-07T02:18:34.858Z,18.07
2018-06-07T02:19:35.107Z,17.95
2018-06-07T02:20:35.138Z,18.12
2018-06-07T02:21:34.558Z,18.12
2018-06-07T02:22:34.807Z,18
2018-06-07T02:23:34.800Z,17.94
2018-06-07T02:24:34.527Z,17.97
2018-06-07T02:25:34.780Z,18.07
2018-06-07T02:26:34.767Z,18.07
2018-06-07T02:27:34.754Z,18.04
2018-06-07T02:28:34.754Z,18.02
2018-06-07T02:29:35.013Z,17.91
2018-06-07T02:30:34.726Z,17.99
2018-06-07T02:31:34.982Z,17.97
2018-06-07T02:32:34.970Z,17.99
2018-06-07T02:33:34.956Z,18.03
2018-06-07T02:34:34.686Z,18.03
2018-06-07T02:35:34.943Z,18
2018-06-07T02:36:34.662Z,17.94
2018-06-07T02:37:34.916Z,17.94
2018-06-07T02:38:34.648Z,17.99
2018-06-07T02:39:34.891Z,17.91
2018-06-07T02:40:34.626Z,17.92
2018-06-07T02:41:34.604Z,17.94
2018-06-07T02:42:34.863Z,17.84
2018-06-07T02:43:34.316Z,17.78
2018-06-07T02:44:34.835Z,17.84
2018-06-07T02:45:34.561Z,17.84
2018-06-07T02:46:35.021Z,17.82
2018-06-07T02:47:34.539Z,17.76
2018-06-07T02:48:34.536Z,17.79
2018-06-07T02:49:34.516Z,17.79
2018-06-07T02:50:34.788Z,17.76
2018-06-07T02:51:34.230Z,17.81
2018-06-07T02:52:34.271Z,17.7
2018-06-07T02:53:34.473Z,17.71
2018-06-07T02:54:34.196Z,17.76
2018-06-07T02:55:34.451Z,17.63
2018-06-07T02:56:34.702Z,17.66
2018-06-07T02:57:34.485Z,17.67
2018-06-07T02:58:34.427Z,17.69
2018-06-07T02:59:34.677Z,17.66
2018-06-07T03:00:34.396Z,17.54
2018-06-07T03:01:34.480Z,17.64
2018-06-07T03:02:34.652Z,17.55
2018-06-07T03:03:34.368Z,17.59
2018-06-07T03:04:34.622Z,17.53
2018-06-07T03:05:34.608Z,17.51
2018-06-07T03:06:34.600Z,17.59
2018-06-07T03:07:34.323Z,17.59
2018-06-07T03:08:34.049Z,17.55
2018-06-07T03:09:34.302Z,17.57
2018-06-07T03:10:34.286Z,17.51
2018-06-07T03:11:34.279Z,17.67
2018-06-07T03:12:34.264Z,17.53
2018-06-07T03:13:34.249Z,17.53
2018-06-07T03:14:34.508Z,17.55
2018-06-07T03:15:34.232Z,17.66
2018-06-07T03:16:34.225Z,17.66
2018-06-07T03:17:34.478Z,17.66
2018-06-07T03:18:34.207Z,17.62
2018-06-07T03:19:34.192Z,17.53
2018-06-07T03:20:34.446Z,17.62
2018-06-07T03:21:34.431Z,17.62
2018-06-07T03:22:34.425Z,17.53
2018-06-07T03:23:34.418Z,17.66
2018-06-07T03:24:34.138Z,17.55
2018-06-07T03:25:33.857Z,17.54
2018-06-07T03:26:34.111Z,17.57
2018-06-07T03:27:33.835Z,17.53
2018-06-07T03:28:34.089Z,17.53
2018-06-07T03:29:34.339Z,17.48
2018-06-07T03:30:34.331Z,17.43
2018-06-07T03:31:34.224Z,17.51
2018-06-07T03:32:34.043Z,17.44
2018-06-07T03:33:34.037Z,17.48
2018-06-07T03:34:33.762Z,17.4
2018-06-07T03:35:34.005Z,17.43
2018-06-07T03:36:34.002Z,17.54
2018-06-07T03:37:33.987Z,17.47
2018-06-07T03:38:34.237Z,17.41
2018-06-07T03:39:33.969Z,17.41
2018-06-07T03:40:33.954Z,17.47
2018-06-07T03:41:34.212Z,17.57
2018-06-07T03:42:34.196Z,17.55
2018-06-07T03:43:33.674Z,17.53
2018-06-07T03:44:34.227Z,17.54
2018-06-07T03:45:34.170Z,17.54
2018-06-07T03:46:33.889Z,17.55
2018-06-07T03:47:33.881Z,17.59
2018-06-07T03:48:33.605Z,17.51
2018-06-07T03:49:34.123Z,17.48
2018-06-07T03:50:33.845Z,17.67
2018-06-07T03:51:33.568Z,17.55
2018-06-07T03:52:34.084Z,17.57
2018-06-07T03:53:34.079Z,17.57
2018-06-07T03:54:34.079Z,17.54
2018-06-07T03:55:33.789Z,17.69
2018-06-07T03:56:33.784Z,17.66
2018-06-07T03:57:33.768Z,17.7
2018-06-07T03:58:33.768Z,17.66
2018-06-07T03:59:33.746Z,17.81
2018-06-07T04:00:33.740Z,17.73
2018-06-07T04:01:33.994Z,17.79
2018-06-07T04:02:33.714Z,17.76
2018-06-07T04:03:33.961Z,17.76
2018-06-07T04:04:33.689Z,17.84
2018-06-07T04:05:33.675Z,17.88
2018-06-07T04:06:33.935Z,17.81
2018-06-07T04:07:33.396Z,17.94
2018-06-07T04:08:33.651Z,17.95
2018-06-07T04:09:33.904Z,17.87
2018-06-07T04:10:33.889Z,17.87
2018-06-07T04:11:33.876Z,17.91
2018-06-07T04:12:33.609Z,17.92
2018-06-07T04:13:33.325Z,18.02
2018-06-07T04:14:33.843Z,18.03
2018-06-07T04:15:33.304Z,17.99
2018-06-07T04:16:33.826Z,18.09
2018-06-07T04:17:33.560Z,17.94
2018-06-07T04:18:33.814Z,18.04
2018-06-07T04:19:33.789Z,18.04
2018-06-07T04:20:33.517Z,18.09
2018-06-07T04:21:33.771Z,18.17
2018-06-07T04:22:33.493Z,18.13
2018-06-07T04:23:33.747Z,18.13
2018-06-07T04:24:33.211Z,18.13
2018-06-07T04:25:33.465Z,18.19
2018-06-07T04:26:33.711Z,18.19
2018-06-07T04:27:33.449Z,18.24
2018-06-07T04:28:33.691Z,18.21
2018-06-07T04:29:33.422Z,18.25
2018-06-07T04:30:33.410Z,18.31
2018-06-07T04:31:33.659Z,18.31
2018-06-07T04:32:33.124Z,18.33
2018-06-07T04:33:33.642Z,18.36
2018-06-07T04:34:33.373Z,18.37
2018-06-07T04:35:33.355Z,18.46
2018-06-07T04:36:33.082Z,18.52
2018-06-07T04:37:33.074Z,18.54
2018-06-07T04:38:33.323Z,18.62
2018-06-07T04:39:33.582Z,18.58
2018-06-07T04:40:33.572Z,18.65
2018-06-07T04:41:33.296Z,18.68
2018-06-07T04:42:33.550Z,18.67
2018-06-07T04:43:33.272Z,18.7
2018-06-07T04:44:32.996Z,18.62
2018-06-07T04:45:33.516Z,18.65
2018-06-07T04:46:33.911Z,18.65
2018-06-07T04:47:33.498Z,18.67
2018-06-07T04:48:33.492Z,18.62
2018-06-07T04:49:33.211Z,18.64
2018-06-07T04:50:33.464Z,18.64
2018-06-07T04:51:32.925Z,18.7
2018-06-07T04:52:33.177Z,18.64
2018-06-07T04:53:33.434Z,18.77
2018-06-07T04:54:32.887Z,18.7
2018-06-07T04:55:33.547Z,18.73
2018-06-07T04:56:33.406Z,18.84
2018-06-07T04:57:33.388Z,18.79
2018-06-07T04:58:33.133Z,18.79
2018-06-07T04:59:33.368Z,18.8
2018-06-07T05:00:33.106Z,18.9
2018-06-07T05:01:33.348Z,18.9
2018-06-07T05:02:33.336Z,18.99
2018-06-07T05:03:32.808Z,18.99
2018-06-07T05:04:33.054Z,19.08
2018-06-07T05:05:33.048Z,19.11
2018-06-07T05:06:33.048Z,19.14
2018-06-07T05:07:33.027Z,19.24
2018-06-07T05:08:33.012Z,19.21
2018-06-07T05:09:33.001Z,19.33
2018-06-07T05:10:33.264Z,19.35
2018-06-07T05:11:32.988Z,19.46
2018-06-07T05:12:33.252Z,19.4
2018-06-07T05:13:32.975Z,19.5
2018-06-07T05:14:33.220Z,19.55
2018-06-07T05:15:33.206Z,19.55
2018-06-07T05:16:33.197Z,19.65
2018-06-07T05:17:32.924Z,19.6
2018-06-07T05:18:32.914Z,19.75
2018-06-07T05:19:33.177Z,19.78
2018-06-07T05:20:32.894Z,19.83
2018-06-07T05:21:33.157Z,19.97
2018-06-07T05:22:32.886Z,19.95
2018-06-07T05:23:32.601Z,19.93
2018-06-07T05:24:32.863Z,20.06
2018-06-07T05:25:32.850Z,20.06
2018-06-07T05:26:33.104Z,20.13
2018-06-07T05:27:32.833Z,20.16
2018-06-07T05:28:32.829Z,20.21
2018-06-07T05:29:32.550Z,20.24
2018-06-07T05:30:33.068Z,20.2
2018-06-07T05:31:33.058Z,20.31
2018-06-07T05:32:32.790Z,20.27
2018-06-07T05:33:32.777Z,20.27
2018-06-07T05:34:32.770Z,20.33
2018-06-07T05:35:33.021Z,20.35
2018-06-07T05:36:32.751Z,20.43
2018-06-07T05:37:33.005Z,20.46
2018-06-07T05:38:32.729Z,20.39
2018-06-07T05:39:32.987Z,20.42
2018-06-07T05:40:32.710Z,20.41
2018-06-07T05:41:32.974Z,20.41
2018-06-07T05:42:32.966Z,20.42
2018-06-07T05:43:32.424Z,20.35
2018-06-07T05:44:32.768Z,20.46
2018-06-07T05:45:32.985Z,20.41
2018-06-07T05:46:32.918Z,20.42
2018-06-07T05:47:32.645Z,20.43
2018-06-07T05:48:32.905Z,20.38
2018-06-07T05:49:32.897Z,20.47
2018-06-07T05:50:32.622Z,20.35
2018-06-07T05:51:32.873Z,20.39
2018-06-07T05:52:32.861Z,20.31
2018-06-07T05:53:32.603Z,20.38
2018-06-07T05:54:32.849Z,20.46
2018-06-07T05:55:32.571Z,20.43
2018-06-07T05:56:32.833Z,20.46
2018-06-07T05:57:32.910Z,20.51
2018-06-07T05:58:32.834Z,20.41
2018-06-07T05:59:32.854Z,20.46
2018-06-07T06:00:32.872Z,20.53
2018-06-07T06:01:32.776Z,20.58
2018-06-07T06:02:32.525Z,20.5
2018-06-07T06:03:33.017Z,20.62
2018-06-07T06:04:32.770Z,20.74
2018-06-07T06:05:32.920Z,20.72
2018-06-07T06:06:32.735Z,20.81
2018-06-07T06:07:32.477Z,20.81
2018-06-07T06:08:32.456Z,20.84
2018-06-07T06:09:32.965Z,20.8
2018-06-07T06:10:32.435Z,20.89
2018-06-07T06:11:32.690Z,21.01
2018-06-07T06:12:32.690Z,21.27
2018-06-07T06:13:32.415Z,21.48
2018-06-07T06:14:32.664Z,21.57
2018-06-07T06:15:32.131Z,21.6
2018-06-07T06:16:32.664Z,21.61
2018-06-07T06:17:32.378Z,21.57
2018-06-07T06:18:32.627Z,21.61
2018-06-07T06:19:32.621Z,21.76
2018-06-07T06:20:32.614Z,21.94
2018-06-07T06:21:32.079Z,22.02
2018-06-07T06:22:32.068Z,22.07
2018-06-07T06:23:32.333Z,22.04
2018-06-07T06:24:32.585Z,22.09
2018-06-07T06:25:32.573Z,22.06
2018-06-07T06:26:32.585Z,22.16
2018-06-07T06:27:32.700Z,22.22
2018-06-07T06:28:32.571Z,22.14
2018-06-07T06:29:32.548Z,22.25
2018-06-07T06:30:32.270Z,22.22
2018-06-07T06:31:32.271Z,22.2
2018-06-07T06:32:32.254Z,22.37
2018-06-07T06:33:32.531Z,22.28
2018-06-07T06:34:32.506Z,22.37
2018-06-07T06:35:32.496Z,22.37
2018-06-07T06:36:32.230Z,22.47
2018-06-07T06:37:32.216Z,22.47
2018-06-07T06:38:32.209Z,22.56
2018-06-07T06:39:32.196Z,22.62
2018-06-07T06:40:32.484Z,22.64
2018-06-07T06:41:31.917Z,22.72
2018-06-07T06:42:32.178Z,22.71
2018-06-07T06:43:32.433Z,22.8
2018-06-07T06:44:32.432Z,22.97
2018-06-07T06:45:32.420Z,22.87
2018-06-07T06:46:32.144Z,22.99
2018-06-07T06:47:32.135Z,23.09
2018-06-07T06:48:32.133Z,23.49
2018-06-07T06:49:32.820Z,24.02
2018-06-07T06:50:32.386Z,24.6
2018-06-07T06:51:32.374Z,25.09
2018-06-07T06:52:32.368Z,25.53
2018-06-07T06:53:32.098Z,25.91
2018-06-07T06:54:32.365Z,26.31
2018-06-07T06:55:32.093Z,26.43
2018-06-07T06:56:32.343Z,26.77
2018-06-07T06:57:32.337Z,26.96
2018-06-07T06:58:32.069Z,27.11
2018-06-07T06:59:32.353Z,26.95
2018-06-07T07:00:32.342Z,26.86
2018-06-07T07:01:32.047Z,26.91
2018-06-07T07:02:32.040Z,26.89
2018-06-07T07:03:31.769Z,26.84
2018-06-07T07:04:32.047Z,26.83
2018-06-07T07:05:32.019Z,27.06
2018-06-07T07:06:32.012Z,27.23
2018-06-07T07:07:32.271Z,27.32
2018-06-07T07:08:32.024Z,27.58
2018-06-07T07:09:32.280Z,27.7
2018-06-07T07:10:32.002Z,27.74
2018-06-07T07:11:31.983Z,27.98
2018-06-07T07:12:32.247Z,28.26
2018-06-07T07:13:31.971Z,28.35
2018-06-07T07:14:31.974Z,28.62
2018-06-07T07:15:32.249Z,28.88
2018-06-07T07:16:31.962Z,29.08
2018-06-07T07:17:31.698Z,29.19
2018-06-07T07:18:31.954Z,29.25
2018-06-07T07:19:31.945Z,29.19
2018-06-07T07:20:32.202Z,29.13
2018-06-07T07:21:31.933Z,28.91
2018-06-07T07:22:31.663Z,28.59
2018-06-07T07:23:32.189Z,28.35
2018-06-07T07:24:31.921Z,28.19
2018-06-07T07:25:31.915Z,27.91
2018-06-07T07:26:31.651Z,27.88
2018-06-07T07:27:32.167Z,27.86
2018-06-07T07:28:32.170Z,27.88
2018-06-07T07:29:31.900Z,28.23
2018-06-07T07:30:31.902Z,28.51
2018-06-07T07:31:31.894Z,28.96
2018-06-07T07:32:32.154Z,29.35
2018-06-07T07:33:32.147Z,29.87
2018-06-07T07:34:31.956Z,30.33
2018-06-07T07:35:32.146Z,30.38
2018-06-07T07:36:31.871Z,30.75
2018-06-07T07:37:31.869Z,31.08
2018-06-07T07:38:31.876Z,31.3
2018-06-07T07:39:32.135Z,31.53
2018-06-07T07:40:31.596Z,31.93
2018-06-07T07:41:31.856Z,32.32
2018-06-07T07:42:32.117Z,32.59
2018-06-07T07:43:32.111Z,32.73
2018-06-07T07:44:31.842Z,32.81
2018-06-07T07:45:31.852Z,33.08
2018-06-07T07:46:32.110Z,33.34
2018-06-07T07:47:31.583Z,33.41
2018-06-07T07:48:31.584Z,33.36
2018-06-07T07:49:32.107Z,33.48
2018-06-07T07:50:31.847Z,33.58
2018-06-07T07:51:32.111Z,33.92
2018-06-07T07:52:32.103Z,33.95
2018-06-07T07:53:32.103Z,34.01
2018-06-07T07:54:31.829Z,34.19
2018-06-07T07:55:31.570Z,34.41
2018-06-07T07:56:32.097Z,34.42
2018-06-07T07:57:31.826Z,34.53
2018-06-07T07:58:31.567Z,34.66
2018-06-07T07:59:32.095Z,34.77
2018-06-07T08:00:31.845Z,34.84
2018-06-07T08:01:31.830Z,34.94
2018-06-07T08:02:31.566Z,34.89
2018-06-07T08:03:31.826Z,34.89
2018-06-07T08:04:31.837Z,34.83
2018-06-07T08:05:31.864Z,35.06
2018-06-07T08:06:31.574Z,35.23
2018-06-07T08:07:31.574Z,35.28
2018-06-07T08:08:31.840Z,35.3
2018-06-07T08:09:31.834Z,35.26
2018-06-07T08:10:32.098Z,35.18
2018-06-07T08:11:31.843Z,35.23
2018-06-07T08:12:31.842Z,35.29
2018-06-07T08:13:31.841Z,35.33
2018-06-07T08:14:32.108Z,35.36
2018-06-07T08:15:31.582Z,35.26
2018-06-07T08:16:31.844Z,35.29
2018-06-07T08:17:31.584Z,35.17
2018-06-07T08:18:31.847Z,35.08
2018-06-07T08:19:31.587Z,35.07
2018-06-07T08:20:31.853Z,34.99
2018-06-07T08:21:31.584Z,34.95
2018-06-07T08:22:31.854Z,34.72
2018-06-07T08:23:32.120Z,34.61
2018-06-07T08:24:31.595Z,34.79
2018-06-07T08:25:32.129Z,34.89
2018-06-07T08:26:31.864Z,34.92
2018-06-07T08:27:31.865Z,34.98
2018-06-07T08:28:31.877Z,35.06
2018-06-07T08:29:31.866Z,35.08
2018-06-07T08:30:31.870Z,35.33
2018-06-07T08:31:32.135Z,35.45
2018-06-07T08:32:31.611Z,35.37
2018-06-07T08:33:32.144Z,35.35
2018-06-07T08:34:31.880Z,34.98
2018-06-07T08:35:31.876Z,34.54
2018-06-07T08:36:32.143Z,34.26
2018-06-07T08:37:31.615Z,34.34
2018-06-07T08:38:32.138Z,34.04
2018-06-07T08:39:32.003Z,33.94
2018-06-07T08:40:32.143Z,33.74
2018-06-07T08:41:32.145Z,33.49
2018-06-07T08:42:31.880Z,33.55
2018-06-07T08:43:31.616Z,33.86
2018-06-07T08:44:32.198Z,34.02
2018-06-07T08:45:32.147Z,33.58
2018-06-07T08:46:31.877Z,33.01
2018-06-07T08:47:31.823Z,32.44
2018-06-07T08:48:31.876Z,31.96
2018-06-07T08:49:31.875Z,31.57
2018-06-07T08:50:31.885Z,31.15
2018-06-07T08:51:31.611Z,30.75
2018-06-07T08:52:31.606Z,30.5
2018-06-07T08:53:31.876Z,30.18
2018-06-07T08:54:32.162Z,29.99
2018-06-07T08:55:31.880Z,29.71
2018-06-07T08:56:32.132Z,29.68
2018-06-07T08:57:32.129Z,29.5
2018-06-07T08:58:31.858Z,29.35
2018-06-07T08:59:32.165Z,29.18
2018-06-07T09:00:31.600Z,29.08
2018-06-07T09:01:32.113Z,29
2018-06-07T09:02:31.851Z,28.73
2018-06-07T09:03:31.859Z,28.65
2018-06-07T09:04:32.125Z,28.63
2018-06-07T09:05:32.111Z,28.8
2018-06-07T09:06:31.841Z,29.11
2018-06-07T09:07:31.836Z,29.6
2018-06-07T09:08:32.101Z,30.15
2018-06-07T09:09:31.843Z,30.53
2018-06-07T09:10:32.096Z,30.75
2018-06-07T09:11:32.148Z,30.99
2018-06-07T09:12:32.115Z,31.17
2018-06-07T09:13:31.572Z,31.73
2018-06-07T09:14:32.099Z,31.96
2018-06-07T09:15:31.573Z,32.22
2018-06-07T09:16:31.572Z,32.43
2018-06-07T09:17:31.838Z,32.61
2018-06-07T09:18:31.842Z,32.74
2018-06-07T09:19:32.232Z,32.71
2018-06-07T09:20:32.111Z,32.48
2018-06-07T09:21:32.122Z,32.2
2018-06-07T09:22:31.858Z,32.11
2018-06-07T09:23:31.855Z,31.96
2018-06-07T09:24:32.124Z,31.96
2018-06-07T09:25:31.907Z,32.11
2018-06-07T09:26:32.113Z,32.14
2018-06-07T09:27:32.127Z,32.11
2018-06-07T09:28:32.116Z,31.98
2018-06-07T09:29:32.128Z,31.91
2018-06-07T09:30:31.858Z,31.61
2018-06-07T09:31:32.124Z,31.43
2018-06-07T09:32:31.864Z,31.13
2018-06-07T09:33:32.124Z,31.09
2018-06-07T09:34:32.060Z,31.13
2018-06-07T09:35:32.134Z,31.12
2018-06-07T09:36:32.131Z,31.12
2018-06-07T09:37:31.862Z,31.02
2018-06-07T09:38:31.597Z,31.04
2018-06-07T09:39:32.331Z,31.18
2018-06-07T09:40:31.597Z,31.36
2018-06-07T09:41:31.903Z,31.6
2018-06-07T09:42:32.127Z,31.65
2018-06-07T09:43:31.871Z,31.6
2018-06-07T09:44:31.865Z,31.43
2018-06-07T09:45:32.130Z,31.33
2018-06-07T09:46:32.144Z,31.21
2018-06-07T09:47:32.129Z,31.09
2018-06-07T09:48:31.865Z,30.87
2018-06-07T09:49:32.130Z,30.69
2018-06-07T09:50:32.125Z,30.71
2018-06-07T09:51:32.137Z,30.65
2018-06-07T09:52:32.131Z,30.45
2018-06-07T09:53:31.863Z,30.34
2018-06-07T09:54:32.125Z,30.18
2018-06-07T09:55:32.138Z,30.18
2018-06-07T09:56:32.178Z,30.09
2018-06-07T09:57:32.117Z,30.11
2018-06-07T09:58:32.300Z,30
2018-06-07T09:59:31.853Z,29.99
2018-06-07T10:00:32.132Z,30.02
2018-06-07T10:01:32.133Z,29.99
2018-06-07T10:02:31.850Z,29.93
2018-06-07T10:03:32.112Z,29.96
2018-06-07T10:04:32.115Z,29.92
2018-06-07T10:05:31.842Z,29.92
2018-06-07T10:06:31.860Z,29.9
2018-06-07T10:07:32.106Z,30
2018-06-07T10:08:32.095Z,29.93
2018-06-07T10:09:31.834Z,29.94
2018-06-07T10:10:32.100Z,29.82
2018-06-07T10:11:32.095Z,29.82
2018-06-07T10:12:32.111Z,29.87
2018-06-07T10:13:32.090Z,29.72
2018-06-07T10:14:31.819Z,29.79
2018-06-07T10:15:32.085Z,29.71
2018-06-07T10:16:31.824Z,29.81
2018-06-07T10:17:31.814Z,29.96
2018-06-07T10:18:32.075Z,30.45
2018-06-07T10:19:31.818Z,30.75
2018-06-07T10:20:32.076Z,30.99
2018-06-07T10:21:32.097Z,31.21
2018-06-07T10:22:32.304Z,31.58
2018-06-07T10:23:31.818Z,31.96
2018-06-07T10:24:32.083Z,32.36
2018-06-07T10:25:31.834Z,32.59
2018-06-07T10:26:32.082Z,32.93
2018-06-07T10:27:32.093Z,33.34
2018-06-07T10:28:31.560Z,33.58
2018-06-07T10:29:32.095Z,33.83
2018-06-07T10:30:32.100Z,34.14
2018-06-07T10:31:31.831Z,34.42
2018-06-07T10:32:31.569Z,34.79
2018-06-07T10:33:31.844Z,34.95
2018-06-07T10:34:32.106Z,35.11
2018-06-07T10:35:31.847Z,35.07
2018-06-07T10:36:32.116Z,35.33
2018-06-07T10:37:31.850Z,35.48
2018-06-07T10:38:32.125Z,35.81
2018-06-07T10:39:31.868Z,35.95
2018-06-07T10:40:32.178Z,36.01
2018-06-07T10:41:31.872Z,36.46
2018-06-07T10:42:31.885Z,36.61
2018-06-07T10:43:32.151Z,36.83
2018-06-07T10:44:31.891Z,36.97
2018-06-07T10:45:31.637Z,37.13
2018-06-07T10:46:32.173Z,37.05
2018-06-07T10:47:32.211Z,36.79
2018-06-07T10:48:31.914Z,36.86
2018-06-07T10:49:31.932Z,36.97
2018-06-07T10:50:31.930Z,36.85
2018-06-07T10:51:31.931Z,36.82
2018-06-07T10:52:32.205Z,36.91
2018-06-07T10:53:31.945Z,36.94
2018-06-07T10:54:32.216Z,36.99
2018-06-07T10:55:32.219Z,37.05
2018-06-07T10:56:31.965Z,37.14
2018-06-07T10:57:32.239Z,37.09
2018-06-07T10:58:31.711Z,36.98
2018-06-07T10:59:31.724Z,37.14
2018-06-07T11:00:32.258Z,37.17
2018-06-07T11:01:31.728Z,37.16
2018-06-07T11:02:32.273Z,37.29
2018-06-07T11:03:32.271Z,37.38
2018-06-07T11:04:32.422Z,37.33
2018-06-07T11:05:32.301Z,37.42
2018-06-07T11:06:32.028Z,37.67
2018-06-07T11:07:31.780Z,37.77
2018-06-07T11:08:32.044Z,37.89
2018-06-07T11:09:32.368Z,37.95
2018-06-07T11:10:31.795Z,38.08
2018-06-07T11:11:31.794Z,38.23
2018-06-07T11:12:32.334Z,38.15
2018-06-07T11:13:32.339Z,38.24
2018-06-07T11:14:32.355Z,38.3
2018-06-07T11:15:32.086Z,38.33
2018-06-07T11:16:32.094Z,38.51
2018-06-07T11:17:32.098Z,38.45
2018-06-07T11:18:32.110Z,38.44
2018-06-07T11:19:32.378Z,38.3
2018-06-07T11:20:31.863Z,38.27
2018-06-07T11:21:32.128Z,38.26
2018-06-07T11:22:32.136Z,38.12
2018-06-07T11:23:32.413Z,38.26
2018-06-07T11:24:31.894Z,38.29
2018-06-07T11:25:32.424Z,38.44
2018-06-07T11:26:32.166Z,38.51
2018-06-07T11:27:32.435Z,38.61
2018-06-07T11:28:31.911Z,38.68
2018-06-07T11:29:32.181Z,38.83
2018-06-07T11:30:32.458Z,38.99
2018-06-07T11:31:32.334Z,39.02
2018-06-07T11:32:32.206Z,39.01
2018-06-07T11:33:32.217Z,39.18
2018-06-07T11:34:32.226Z,39.2
2018-06-07T11:35:31.970Z,39.05
2018-06-07T11:36:32.235Z,39.17
2018-06-07T11:37:32.516Z,39.14
2018-06-07T11:38:32.523Z,39.17
2018-06-07T11:39:32.259Z,39.15
2018-06-07T11:40:32.272Z,39.27
2018-06-07T11:41:32.290Z,39.2
2018-06-07T11:42:32.284Z,39.06
2018-06-07T11:43:32.296Z,39.21
2018-06-07T11:44:32.040Z,39.28
2018-06-07T11:45:32.311Z,39.4
2018-06-07T11:46:32.316Z,39.46
2018-06-07T11:47:32.327Z,39.4
2018-06-07T11:48:32.333Z,39.46
2018-06-07T11:49:32.079Z,39.4
2018-06-07T11:50:32.352Z,39.54
2018-06-07T11:51:32.091Z,39.25
2018-06-07T11:52:32.649Z,38.82
2018-06-07T11:53:32.648Z,38.71
2018-06-07T11:54:32.653Z,38.7
2018-06-07T11:55:32.397Z,38.7
2018-06-07T11:56:32.408Z,38.9
2018-06-07T11:57:32.671Z,38.98
2018-06-07T11:58:32.415Z,39.01
2018-06-07T11:59:32.691Z,38.99
2018-06-07T12:00:32.709Z,38.78
2018-06-07T12:01:32.444Z,38.8
2018-06-07T12:02:32.449Z,38.66
2018-06-07T12:03:32.456Z,38.66
2018-06-07T12:04:32.460Z,38.78
2018-06-07T12:05:32.211Z,38.92
2018-06-07T12:06:32.749Z,38.92
2018-06-07T12:07:32.534Z,39.03
2018-06-07T12:08:32.757Z,39.06
2018-06-07T12:09:32.504Z,39.14
2018-06-07T12:10:32.824Z,39.22
2018-06-07T12:11:32.787Z,39.43
2018-06-07T12:12:32.314Z,39.4
2018-06-07T12:13:32.271Z,39.49
2018-06-07T12:14:32.811Z,39.52
2018-06-07T12:15:32.551Z,39.46
2018-06-07T12:16:32.575Z,39.59
2018-06-07T12:17:32.573Z,39.67
2018-06-07T12:18:32.572Z,39.67
2018-06-07T12:19:32.586Z,39.42
2018-06-07T12:20:32.332Z,39.32
2018-06-07T12:21:32.602Z,39.3
2018-06-07T12:22:32.872Z,39.25
2018-06-07T12:23:32.880Z,39.39
2018-06-07T12:24:32.885Z,39.4
2018-06-07T12:25:32.639Z,39.46
2018-06-07T12:26:32.898Z,38.99
2018-06-07T12:27:32.650Z,38.15
2018-06-07T12:28:32.927Z,37.67
2018-06-07T12:29:32.669Z,37.68
2018-06-07T12:30:32.931Z,37.62
2018-06-07T12:31:32.679Z,37.83
2018-06-07T12:32:32.683Z,38.12
2018-06-07T12:33:32.966Z,38.36
2018-06-07T12:34:32.968Z,38.55
2018-06-07T12:35:32.448Z,38.83
2018-06-07T12:36:33.004Z,39.18
2018-06-07T12:37:32.735Z,39.22
2018-06-07T12:38:32.733Z,39.36
2018-06-07T12:39:32.998Z,39.42
2018-06-07T12:40:33.523Z,39.56
2018-06-07T12:41:32.752Z,39.8
2018-06-07T12:42:32.756Z,39.74
2018-06-07T12:43:32.767Z,39.36
2018-06-07T12:44:33.041Z,38.87
2018-06-07T12:45:33.049Z,38.44
2018-06-07T12:46:32.792Z,38.12
2018-06-07T12:47:33.269Z,37.89
2018-06-07T12:48:33.073Z,37.47
2018-06-07T12:49:32.547Z,37.14
2018-06-07T12:50:32.816Z,36.91
2018-06-07T12:51:32.564Z,36.87
2018-06-07T12:52:32.831Z,36.98
2018-06-07T12:53:32.835Z,37.01
2018-06-07T12:54:32.841Z,37.24
2018-06-07T12:55:32.863Z,37.59